createdAt,value
2017-09-18T00:00:59.355Z,95392.19
2017-09-18T00:03:29.377Z,95397.94
2017-09-18T00:05:58.853Z,95389.11
2017-09-18T00:08:26.159Z,95390.13
2017-09-18T00:10:52.385Z,95392.04
2017-09-18T00:13:18.617Z,95388.91
2017-09-18T00:15:45.058Z,95388.38
2017-09-18T00:18:11.523Z,95385.49
2017-09-18T00:20:38.103Z,95384.96
2017-09-18T00:23:04.724Z,95382.01
2017-09-18T00:25:32.132Z,95387.50
2017-09-18T00:27:58.807Z,95386.89
2017-09-18T00:30:25.756Z,95380.09
2017-09-18T00:32:52.440Z,95385.23
2017-09-18T00:35:19.080Z,95387.08
2017-09-18T00:37:45.589Z,95382.90
2017-09-18T00:40:11.850Z,95385.10
2017-09-18T00:42:38.480Z,95386.67
2017-09-18T00:45:04.810Z,95386.86
2017-09-18T00:47:31.174Z,95393.52
2017-09-18T00:49:57.453Z,95389.25
2017-09-18T00:52:23.919Z,95382.83
2017-09-18T00:54:50.317Z,95395.74
2017-09-18T00:57:16.603Z,95392.72
2017-09-18T00:59:43.868Z,95389.66
2017-09-18T01:02:10.147Z,95397.96
2017-09-18T01:04:36.422Z,95394.86
2017-09-18T01:07:02.660Z,95390.23
2017-09-18T01:09:29.088Z,95391.38
2017-09-18T01:11:55.482Z,95393.47
2017-09-18T01:14:21.835Z,95400.25
2017-09-18T01:16:48.035Z,95398.81
2017-09-18T01:19:14.354Z,95390.50
2017-09-18T01:21:40.677Z,95394.27
2017-09-18T01:24:06.918Z,95399.03
2017-09-18T01:26:33.161Z,95392.14
2017-09-18T01:28:59.489Z,95391.75
2017-09-18T01:31:25.964Z,95390.39
2017-09-18T01:33:53.981Z,95397.39
2017-09-18T01:36:20.202Z,95392.44
2017-09-18T01:38:46.475Z,95395.58
2017-09-18T01:41:13.109Z,95398.97
2017-09-18T01:43:39.306Z,95395.49
2017-09-18T01:46:07.585Z,95398.06
2017-09-18T01:48:33.885Z,95396.55
2017-09-18T01:51:00.193Z,95392.08
2017-09-18T01:53:26.393Z,95393.07
2017-09-18T01:55:52.618Z,95388.42
2017-09-18T01:58:23.122Z,95390.94
2017-09-18T02:00:49.471Z,95388.02
2017-09-18T02:03:16.660Z,95389.66
2017-09-18T02:05:42.946Z,95393.08
2017-09-18T02:08:09.352Z,95391.52
2017-09-18T02:10:35.611Z,95400.35
2017-09-18T02:13:01.924Z,95399.86
2017-09-18T02:15:28.150Z,95405.92
2017-09-18T02:17:54.402Z,95398.20
2017-09-18T02:20:20.601Z,95404.07
2017-09-18T02:22:46.889Z,95402.55
2017-09-18T02:25:13.178Z,95404.86
2017-09-18T02:27:39.417Z,95405.23
2017-09-18T02:30:20.571Z,95403.34
2017-09-18T02:32:47.541Z,95408.24
2017-09-18T02:35:13.882Z,95406.59
2017-09-18T02:37:40.114Z,95402.83
2017-09-18T02:40:06.342Z,95404.07
2017-09-18T02:42:32.596Z,95407.19
2017-09-18T02:44:58.815Z,95407.81
2017-09-18T02:47:25.059Z,95413.95
2017-09-18T02:49:51.334Z,95415.68
2017-09-18T02:52:17.622Z,95412.23
2017-09-18T02:54:43.859Z,95411.27
2017-09-18T02:57:10.085Z,95412.86
2017-09-18T02:59:36.308Z,95416.83
2017-09-18T03:02:03.284Z,95411.96
2017-09-18T03:04:29.545Z,95406.81
2017-09-18T03:06:58.816Z,95414.01
2017-09-18T03:09:25.243Z,95413.13
2017-09-18T03:11:51.554Z,95413.40
2017-09-18T03:14:18.593Z,95416.22
2017-09-18T03:16:44.907Z,95417.84
2017-09-18T03:19:11.183Z,95414.15
2017-09-18T03:21:38.177Z,95414.00
2017-09-18T03:24:04.448Z,95411.30
2017-09-18T03:26:30.739Z,95413.52
2017-09-18T03:28:57.197Z,95412.47
2017-09-18T03:31:23.426Z,95418.85
2017-09-18T03:33:50.753Z,95416.58
2017-09-18T03:36:17.059Z,95418.66
2017-09-18T03:38:43.348Z,95419.16
2017-09-18T03:41:09.609Z,95416.95
2017-09-18T03:43:35.966Z,95415.30
2017-09-18T03:46:02.285Z,95421.75
2017-09-18T03:48:28.590Z,95418.80
2017-09-18T03:50:54.914Z,95420.50
2017-09-18T03:53:21.157Z,95427.47
2017-09-18T03:55:47.434Z,95430.54
2017-09-18T03:58:14.587Z,95430.64
2017-09-18T04:00:40.817Z,95424.20
2017-09-18T04:03:07.202Z,95432.98
2017-09-18T04:05:33.453Z,95429.71
2017-09-18T04:07:59.681Z,95431.56
2017-09-18T04:10:25.953Z,95427.79
2017-09-18T04:12:52.178Z,95431.38
2017-09-18T04:15:18.478Z,95431.38
2017-09-18T04:17:45.438Z,95432.17
2017-09-18T04:20:11.710Z,95436.05
2017-09-18T04:22:38.080Z,95432.66
2017-09-18T04:25:05.149Z,95437.88
2017-09-18T04:27:32.144Z,95437.45
2017-09-18T04:29:58.382Z,95440.03
2017-09-18T04:32:24.598Z,95431.78
2017-09-18T04:34:50.849Z,95439.85
2017-09-18T04:37:17.064Z,95429.20
2017-09-18T04:39:43.377Z,95435.41
2017-09-18T04:42:10.357Z,95436.47
2017-09-18T04:44:36.586Z,95441.66
2017-09-18T04:47:02.810Z,95444.77
2017-09-18T04:49:32.850Z,95449.38
2017-09-18T04:52:01.166Z,95457.17
2017-09-18T04:54:28.165Z,95458.75
2017-09-18T04:56:54.431Z,95462.74
2017-09-18T04:59:20.663Z,95461.55
2017-09-18T05:01:46.909Z,95464.56
2017-09-18T05:04:13.273Z,95475.23
2017-09-18T05:06:39.543Z,95478.14
2017-09-18T05:09:05.830Z,95479.71
2017-09-18T05:11:32.132Z,95479.19
2017-09-18T05:13:58.502Z,95483.08
2017-09-18T05:16:24.820Z,95479.52
2017-09-18T05:18:51.002Z,95483.21
2017-09-18T05:21:17.981Z,95485.61
2017-09-18T05:23:44.266Z,95486.04
2017-09-18T05:26:10.582Z,95480.63
2017-09-18T05:28:36.831Z,95485.19
2017-09-18T05:31:03.158Z,95489.79
2017-09-18T05:33:29.469Z,95491.16
2017-09-18T05:35:55.700Z,95491.64
2017-09-18T05:38:21.930Z,95499.73
2017-09-18T05:40:48.198Z,95494.20
2017-09-18T05:43:14.532Z,95492.09
2017-09-18T05:45:41.486Z,95492.70
2017-09-18T05:48:07.705Z,95493.03
2017-09-18T05:50:33.910Z,95497.00
2017-09-18T05:53:00.153Z,95500.59
2017-09-18T05:55:27.154Z,95496.87
2017-09-18T05:57:53.450Z,95500.91
2017-09-18T06:00:19.672Z,95499.59
2017-09-18T06:02:45.934Z,95503.82
2017-09-18T06:05:12.315Z,95506.47
2017-09-18T06:07:38.610Z,95502.37
2017-09-18T06:10:04.850Z,95503.39
2017-09-18T06:12:31.164Z,95506.78
2017-09-18T06:14:57.407Z,95503.08
2017-09-18T06:17:23.641Z,95507.26
2017-09-18T06:19:49.833Z,95507.06
2017-09-18T06:22:16.864Z,95506.20
2017-09-18T06:24:43.877Z,95514.00
2017-09-18T06:27:10.096Z,95514.80
2017-09-18T06:29:36.325Z,95513.84
2017-09-18T06:32:02.773Z,95525.98
2017-09-18T06:34:30.059Z,95521.11
2017-09-18T06:36:58.296Z,95524.84
2017-09-18T06:39:24.533Z,95528.17
2017-09-18T06:41:50.810Z,95529.30
2017-09-18T06:44:17.142Z,95531.15
2017-09-18T06:46:43.338Z,95531.88
2017-09-18T06:49:09.595Z,95531.27
2017-09-18T06:51:35.842Z,95531.61
2017-09-18T06:54:02.066Z,95527.35
2017-09-18T06:56:28.330Z,95531.14
2017-09-18T06:58:54.565Z,95526.96
2017-09-18T07:01:20.859Z,95536.19
2017-09-18T07:03:47.138Z,95549.73
2017-09-18T07:06:13.450Z,95538.56
2017-09-18T07:08:39.689Z,95533.91
2017-09-18T07:11:05.898Z,95541.70
2017-09-18T07:13:32.153Z,95537.41
2017-09-18T07:15:58.406Z,95537.08
2017-09-18T07:18:24.650Z,95543.00
2017-09-18T07:20:50.969Z,95541.71
2017-09-18T07:23:17.233Z,95539.58
2017-09-18T07:25:44.261Z,95543.28
2017-09-18T07:28:10.563Z,95555.02
2017-09-18T07:30:36.884Z,95551.72
2017-09-18T07:33:03.158Z,95561.23
2017-09-18T07:35:33.853Z,95558.30
2017-09-18T07:38:01.366Z,95550.27
2017-09-18T07:40:27.575Z,95553.44
2017-09-18T07:42:53.949Z,95557.17
2017-09-18T07:45:20.270Z,95559.78
2017-09-18T07:47:46.581Z,95564.40
2017-09-18T07:50:12.842Z,95561.98
2017-09-18T07:52:39.168Z,95564.64
2017-09-18T07:55:05.381Z,95562.95
2017-09-18T07:57:31.629Z,95572.06
2017-09-18T07:59:57.870Z,95569.95
2017-09-18T08:02:24.322Z,95569.84
2017-09-18T08:04:50.633Z,95580.59
2017-09-18T08:07:16.872Z,95572.30
2017-09-18T08:09:43.082Z,95575.30
2017-09-18T08:12:09.330Z,95583.28
2017-09-18T08:14:35.693Z,95580.97
2017-09-18T08:17:01.896Z,95582.25
2017-09-18T08:19:28.126Z,95585.61
2017-09-18T08:21:54.413Z,95580.41
2017-09-18T08:24:20.735Z,95578.58
2017-09-18T08:26:46.990Z,95588.48
2017-09-18T08:29:13.298Z,95588.91
2017-09-18T08:31:39.510Z,95587.67
2017-09-18T08:34:05.986Z,95593.77
2017-09-18T08:36:32.292Z,95588.05
2017-09-18T08:38:58.558Z,95582.80
2017-09-18T08:41:25.086Z,95594.59
2017-09-18T08:43:51.317Z,95587.11
2017-09-18T08:46:17.517Z,95582.19
2017-09-18T08:48:44.505Z,95588.70
2017-09-18T08:51:10.736Z,95590.38
2017-09-18T08:53:37.090Z,95587.16
2017-09-18T08:56:03.438Z,95579.39
2017-09-18T08:58:29.873Z,95579.77
2017-09-18T09:00:59.104Z,95576.22
2017-09-18T09:03:26.158Z,95589.52
2017-09-18T09:05:57.788Z,95572.81
2017-09-18T09:08:24.396Z,95588.27
2017-09-18T09:10:50.686Z,95579.09
2017-09-18T09:13:17.697Z,95580.08
2017-09-18T09:15:43.929Z,95581.39
2017-09-18T09:18:10.993Z,95580.45
2017-09-18T09:20:37.227Z,95579.44
2017-09-18T09:23:03.589Z,95582.27
2017-09-18T09:25:30.872Z,95571.73
2017-09-18T09:27:59.946Z,95573.48
2017-09-18T09:30:26.258Z,95574.25
2017-09-18T09:32:55.590Z,95577.83
2017-09-18T09:35:22.865Z,95579.85
2017-09-18T09:37:49.829Z,95574.81
2017-09-18T09:40:16.178Z,95575.21
2017-09-18T09:42:42.812Z,95581.37
2017-09-18T09:45:09.087Z,95584.70
2017-09-18T09:47:35.308Z,95580.44
2017-09-18T09:50:01.548Z,95585.67
2017-09-18T09:52:27.844Z,95580.97
2017-09-18T09:54:58.340Z,95582.09
2017-09-18T09:57:25.450Z,95581.34
2017-09-18T09:59:54.396Z,95576.32
2017-09-18T10:02:20.701Z,95575.69
2017-09-18T10:04:46.942Z,95580.57
2017-09-18T10:07:14.176Z,95581.67
2017-09-18T10:09:40.381Z,95574.40
2017-09-18T10:12:07.397Z,95577.25
2017-09-18T10:14:34.205Z,95572.75
2017-09-18T10:17:01.460Z,95579.06
2017-09-18T10:19:27.737Z,95582.47
2017-09-18T10:21:57.363Z,95583.05
2017-09-18T10:24:23.678Z,95589.20
2017-09-18T10:26:49.994Z,95588.84
2017-09-18T10:29:16.202Z,95599.28
2017-09-18T10:31:44.215Z,95593.12
2017-09-18T10:34:15.209Z,95591.80
2017-09-18T10:36:41.698Z,95586.20
2017-09-18T10:39:07.949Z,95582.66
2017-09-18T10:41:35.420Z,95581.34
2017-09-18T10:44:02.551Z,95576.23
2017-09-18T10:46:30.672Z,95562.77
2017-09-18T10:48:58.122Z,95555.64
2017-09-18T10:51:25.739Z,95546.98
2017-09-18T10:53:55.525Z,95541.47
2017-09-18T10:56:22.280Z,95539.56
2017-09-18T10:58:51.971Z,95537.14
2017-09-18T11:01:19.731Z,95540.33
2017-09-18T11:03:50.633Z,95549.90
2017-09-18T11:06:18.229Z,95544.13
2017-09-18T11:08:45.827Z,95555.26
2017-09-18T11:11:16.636Z,95558.48
2017-09-18T11:13:44.402Z,95555.63
2017-09-18T11:16:14.623Z,95549.97
2017-09-18T11:18:41.491Z,95547.34
2017-09-18T11:21:08.753Z,95538.35
2017-09-18T11:23:41.407Z,95541.84
2017-09-18T11:26:08.455Z,95541.80
2017-09-18T11:28:36.785Z,95540.56
2017-09-18T11:31:03.789Z,95532.49
2017-09-18T11:33:30.882Z,95541.27
2017-09-18T11:35:58.834Z,95539.80
2017-09-18T11:38:29.878Z,95538.92
2017-09-18T11:40:57.218Z,95537.70
2017-09-18T11:43:24.395Z,95525.05
2017-09-18T11:45:50.685Z,95533.05
2017-09-18T11:48:20.466Z,95526.72
2017-09-18T11:50:50.902Z,95533.91
2017-09-18T11:53:20.437Z,95527.26
2017-09-18T11:55:51.169Z,95521.23
2017-09-18T11:58:21.211Z,95526.83
2017-09-18T12:00:48.215Z,95519.66
2017-09-18T12:03:14.876Z,95522.36
2017-09-18T12:05:47.703Z,95520.20
2017-09-18T12:08:17.194Z,95522.43
2017-09-18T12:10:47.318Z,95521.02
2017-09-18T12:13:14.662Z,95520.37
2017-09-18T12:15:40.929Z,95520.56
2017-09-18T12:18:07.154Z,95521.79
2017-09-18T12:20:33.362Z,95517.42
2017-09-18T12:22:59.604Z,95513.55
2017-09-18T12:25:25.848Z,95520.26
2017-09-18T12:27:52.169Z,95524.04
2017-09-18T12:30:18.456Z,95522.65
2017-09-18T12:32:45.573Z,95530.69
2017-09-18T12:35:11.900Z,95516.64
2017-09-18T12:37:38.162Z,95511.50
2017-09-18T12:40:04.419Z,95511.20
2017-09-18T12:42:30.860Z,95504.90
2017-09-18T12:44:57.177Z,95507.29
2017-09-18T12:47:23.505Z,95507.41
2017-09-18T12:49:49.737Z,95522.31
2017-09-18T12:52:15.997Z,95521.03
2017-09-18T12:54:42.290Z,95523.49
2017-09-18T12:57:08.721Z,95518.14
2017-09-18T12:59:34.988Z,95514.52
2017-09-18T13:02:01.212Z,95511.19
2017-09-18T13:04:27.441Z,95504.03
2017-09-18T13:06:53.678Z,95496.55
2017-09-18T13:09:19.929Z,95495.58
2017-09-18T13:11:46.186Z,95498.30
2017-09-18T13:14:12.456Z,95505.98
2017-09-18T13:16:39.462Z,95509.37
2017-09-18T13:19:05.780Z,95501.49
2017-09-18T13:21:31.973Z,95495.27
2017-09-18T13:23:58.269Z,95491.01
2017-09-18T13:26:24.585Z,95491.73
2017-09-18T13:28:50.821Z,95490.27
2017-09-18T13:31:17.111Z,95491.22
2017-09-18T13:33:44.113Z,95488.47
2017-09-18T13:36:12.927Z,95484.15
2017-09-18T13:38:39.209Z,95485.67
2017-09-18T13:41:05.468Z,95485.05
2017-09-18T13:43:31.688Z,95474.54
2017-09-18T13:45:57.989Z,95484.64
2017-09-18T13:48:24.249Z,95489.23
2017-09-18T13:50:50.510Z,95485.75
2017-09-18T13:53:16.737Z,95489.36
2017-09-18T13:55:42.953Z,95492.08
2017-09-18T13:58:09.189Z,95492.98
2017-09-18T14:00:35.449Z,95484.51
2017-09-18T14:03:01.693Z,95480.75
2017-09-18T14:05:27.941Z,95480.31
2017-09-18T14:07:54.253Z,95480.88
2017-09-18T14:10:20.471Z,95484.50
2017-09-18T14:12:46.747Z,95484.67
2017-09-18T14:15:14.525Z,95481.92
2017-09-18T14:17:41.773Z,95479.94
2017-09-18T14:20:08.053Z,95477.78
2017-09-18T14:22:34.301Z,95483.33
2017-09-18T14:25:00.769Z,95483.88
2017-09-18T14:27:27.002Z,95483.81
2017-09-18T14:29:53.345Z,95481.03
2017-09-18T14:32:24.344Z,95473.77
2017-09-18T14:34:52.221Z,95468.98
2017-09-18T14:37:18.513Z,95473.86
2017-09-18T14:39:46.149Z,95467.64
2017-09-18T14:42:12.625Z,95476.73
2017-09-18T14:44:38.910Z,95481.20
2017-09-18T14:47:06.584Z,95483.83
2017-09-18T14:49:32.844Z,95484.94
2017-09-18T14:51:59.057Z,95488.41
2017-09-18T14:54:29.348Z,95489.32
2017-09-18T14:56:55.588Z,95487.75
2017-09-18T14:59:21.850Z,95489.52
2017-09-18T15:01:49.069Z,95490.95
2017-09-18T15:04:16.137Z,95492.02
2017-09-18T15:06:42.429Z,95487.86
2017-09-18T15:09:09.509Z,95480.64
2017-09-18T15:11:36.612Z,95482.16
2017-09-18T15:14:05.592Z,95473.61
2017-09-18T15:16:31.951Z,95477.31
2017-09-18T15:18:58.170Z,95474.11
2017-09-18T15:21:24.401Z,95471.56
2017-09-18T15:23:50.658Z,95469.31
2017-09-18T15:26:17.010Z,95474.48
2017-09-18T15:28:43.381Z,95471.28
2017-09-18T15:31:09.617Z,95466.34
2017-09-18T15:33:36.085Z,95473.53
2017-09-18T15:36:02.313Z,95472.77
2017-09-18T15:38:28.582Z,95473.66
2017-09-18T15:40:54.801Z,95476.77
2017-09-18T15:43:21.341Z,95473.55
2017-09-18T15:45:47.737Z,95475.14
2017-09-18T15:48:14.933Z,95481.19
2017-09-18T15:50:41.185Z,95486.65
2017-09-18T15:53:07.786Z,95489.80
2017-09-18T15:55:34.021Z,95482.13
2017-09-18T15:58:00.507Z,95483.67
2017-09-18T16:00:26.933Z,95483.45
2017-09-18T16:02:53.185Z,95483.41
2017-09-18T16:05:19.909Z,95482.17
2017-09-18T16:07:46.222Z,95481.09
2017-09-18T16:10:12.481Z,95477.62
2017-09-18T16:12:41.964Z,95480.95
2017-09-18T16:15:10.162Z,95483.70
2017-09-18T16:17:38.546Z,95485.40
2017-09-18T16:20:09.999Z,95475.66
2017-09-18T16:22:39.380Z,95479.16
2017-09-18T16:25:08.751Z,95482.48
2017-09-18T16:27:40.601Z,95481.55
2017-09-18T16:30:10.487Z,95488.47
2017-09-18T16:32:42.502Z,95484.00
2017-09-18T16:35:13.344Z,95481.02
2017-09-18T16:37:42.813Z,95481.78
2017-09-18T16:40:12.120Z,95483.31
2017-09-18T16:42:41.144Z,95480.32
2017-09-18T16:45:10.307Z,95486.62
2017-09-18T16:47:39.932Z,95488.87
2017-09-18T16:50:08.937Z,95493.03
2017-09-18T16:52:38.132Z,95491.23
2017-09-18T16:55:09.210Z,95486.03
2017-09-18T16:57:39.423Z,95493.14
2017-09-18T17:00:09.065Z,95487.20
2017-09-18T17:02:35.421Z,95495.25
2017-09-18T17:05:01.899Z,95499.72
2017-09-18T17:07:28.210Z,95504.22
2017-09-18T17:09:54.469Z,95500.62
2017-09-18T17:12:22.287Z,95510.48
2017-09-18T17:14:51.201Z,95514.20
2017-09-18T17:17:19.926Z,95519.75
2017-09-18T17:19:48.376Z,95517.44
2017-09-18T17:22:16.370Z,95519.91
2017-09-18T17:24:46.493Z,95519.84
2017-09-18T17:27:15.354Z,95517.47
2017-09-18T17:29:43.052Z,95527.03
2017-09-18T17:32:11.757Z,95528.13
2017-09-18T17:34:55.184Z,95532.20
2017-09-18T17:37:24.676Z,95531.77
2017-09-18T17:39:53.602Z,95542.01
2017-09-18T17:42:21.957Z,95545.98
2017-09-18T17:44:49.214Z,95544.55
2017-09-18T17:47:17.188Z,95542.80
2017-09-18T17:49:47.695Z,95546.36
2017-09-18T17:52:15.351Z,95545.05
2017-09-18T17:54:44.895Z,95547.73
2017-09-18T17:57:15.686Z,95550.16
2017-09-18T17:59:42.930Z,95555.16
2017-09-18T18:02:14.013Z,95555.08
2017-09-18T18:04:41.922Z,95558.97
2017-09-18T18:07:10.150Z,95560.20
2017-09-18T18:09:37.655Z,95561.34
2017-09-18T18:12:04.083Z,95566.51
2017-09-18T18:14:30.307Z,95573.78
2017-09-18T18:16:58.299Z,95577.16
2017-09-18T18:19:26.847Z,95575.09
2017-09-18T18:21:54.520Z,95577.71
2017-09-18T18:24:22.223Z,95579.16
2017-09-18T18:26:50.766Z,95582.16
2017-09-18T18:29:18.479Z,95586.81
2017-09-18T18:31:45.738Z,95583.70
2017-09-18T18:34:15.597Z,95591.55
2017-09-18T18:36:42.093Z,95589.64
2017-09-18T18:39:11.427Z,95587.77
2017-09-18T18:41:40.122Z,95591.44
2017-09-18T18:44:09.028Z,95590.73
2017-09-18T18:46:36.347Z,95592.25
2017-09-18T18:49:04.436Z,95596.97
2017-09-18T18:51:34.169Z,95589.16
2017-09-18T18:54:04.801Z,95594.23
2017-09-18T18:56:31.299Z,95596.68
2017-09-18T18:58:57.598Z,95592.98
2017-09-18T19:01:24.604Z,95601.55
2017-09-18T19:03:51.134Z,95597.04
2017-09-18T19:06:17.451Z,95608.08
2017-09-18T19:08:43.722Z,95602.00
2017-09-18T19:11:10.070Z,95601.77
2017-09-18T19:13:36.501Z,95603.23
2017-09-18T19:16:03.128Z,95606.33
2017-09-18T19:18:29.426Z,95611.95
2017-09-18T19:20:56.397Z,95608.64
2017-09-18T19:23:25.027Z,95611.23
2017-09-18T19:25:51.261Z,95611.37
